Aviation Digital Data Service (ADDS)

Output produced by TAFs form (0749 UTC 21 November 2017)
found at http://www.aviationweather.gov/adds/tafs/
 
KALB 210536Z 2106/2206 19008KT P6SM SKC 
     FM211500 19016G28KT P6SM SKC 
     FM220000 18010G18KT P6SM SCT200